Time;durP1;ratioP1;P1;durP2;ratioP2;P2;SDS_P1;SDS_P2;PMS_P1;PMS_P2;Temp;Humidity;BMP_temperature;BMP_pressure;BME280_temperature;BME280_humidity;BME280_pressure;Samples;Min_cycle;Max_cycle;Signal;HPM_P1;HPM_P2
2022/12/16 00:02:15;;;;;;;62.43;46.03;;;;;;;7.39;97.85;99542.88;5074865;28;20216;-57
2022/12/16 00:04:42;;;;;;;68.13;44.70;;;;;;;7.41;98.02;99531.03;5074696;28;20191;-57
2022/12/16 00:07:09;;;;;;;65.77;44.93;;;;;;;7.47;98.78;99525.25;5075125;28;20190;-56
2022/12/16 00:09:36;;;;;;;66.40;45.20;;;;;;;7.50;98.29;99525.31;5074797;28;20183;-57
2022/12/16 00:12:02;;;;;;;66.60;43.83;;;;;;;7.53;98.08;99535.63;5074826;28;20198;-57
2022/12/16 00:14:29;;;;;;;61.77;43.47;;;;;;;7.53;98.26;99526.25;5074649;28;20190;-57
2022/12/16 00:16:56;;;;;;;58.72;43.13;;;;;;;7.52;98.63;99529.66;5074097;28;20912;-58
2022/12/16 00:19:24;;;;;;;53.50;39.27;;;;;;;7.52;98.57;99532.22;5074714;28;20183;-58
2022/12/16 00:21:51;;;;;;;70.60;41.47;;;;;;;7.52;98.13;99531.34;5074358;28;20230;-57
2022/12/16 00:24:18;;;;;;;54.93;38.53;;;;;;;7.52;98.39;99529.66;5074525;28;20237;-57
2022/12/16 00:26:44;;;;;;;53.80;39.10;;;;;;;7.56;97.76;99539.13;5075169;28;20218;-56
2022/12/16 00:29:11;;;;;;;58.80;41.10;;;;;;;7.56;97.60;99539.13;5074842;28;20187;-57
2022/12/16 00:31:39;;;;;;;62.87;43.00;;;;;;;7.47;97.34;99538.03;5074573;28;20183;-58
2022/12/16 00:34:05;;;;;;;62.60;42.43;;;;;;;7.48;97.20;99525.28;5074946;28;20189;-58
2022/12/16 00:36:34;;;;;;;69.60;43.60;;;;;;;7.49;97.15;99532.13;5074448;28;20187;-57
2022/12/16 00:39:01;;;;;;;63.53;42.47;;;;;;;7.50;97.46;99538.09;5074473;28;20189;-57
2022/12/16 00:41:27;;;;;;;52.83;36.87;;;;;;;7.47;97.42;99538.88;5074177;28;20196;-57
2022/12/16 00:43:54;;;;;;;55.37;38.07;;;;;;;7.47;97.44;99548.25;5074430;28;20577;-58
2022/12/16 00:46:21;;;;;;;53.40;36.07;;;;;;;7.46;97.54;99552.50;5074382;28;20186;-57
2022/12/16 00:48:48;;;;;;;56.87;36.87;;;;;;;7.49;97.64;99547.47;5074160;28;20183;-57
2022/12/16 00:51:14;;;;;;;49.33;34.90;;;;;;;7.47;97.68;99551.66;5074235;28;20245;-57
2022/12/16 00:53:43;;;;;;;59.87;36.97;;;;;;;7.37;98.04;99539.44;5073571;28;20546;-57
2022/12/16 00:56:13;;;;;;;57.07;36.77;;;;;;;7.27;99.00;99542.53;5074071;28;20186;-56
2022/12/16 00:58:41;;;;;;;54.23;35.23;;;;;;;7.21;99.29;99536.38;5073942;28;20187;-57
2022/12/16 01:01:08;;;;;;;51.83;35.87;;;;;;;7.27;98.95;99534.88;5073221;28;20193;-57
2022/12/16 01:03:36;;;;;;;53.97;38.87;;;;;;;7.11;98.89;99525.03;5073898;28;20281;-57
2022/12/16 01:06:08;;;;;;;52.83;36.87;;;;;;;7.11;99.70;99517.38;5074453;28;20390;-57
2022/12/16 01:08:35;;;;;;;63.93;41.80;;;;;;;7.08;99.89;99512.16;5073662;28;20189;-57
2022/12/16 01:11:03;;;;;;;68.90;49.88;;;;;;;7.07;100.00;99515.53;5072996;28;20774;-57
2022/12/16 01:13:30;;;;;;;66.33;45.97;;;;;;;7.09;99.97;99530.06;5073600;28;20278;-57
2022/12/16 01:16:00;;;;;;;63.00;43.80;;;;;;;7.08;100.00;99530.03;5073616;28;20699;-57
2022/12/16 01:18:27;;;;;;;58.07;40.10;;;;;;;7.15;99.61;99554.94;5073673;28;20612;-57
2022/12/16 01:20:53;;;;;;;60.03;38.77;;;;;;;7.15;99.67;99562.59;5073602;28;20191;-57
2022/12/16 01:23:21;;;;;;;57.80;36.53;;;;;;;7.21;100.00;99561.91;5073475;28;20272;-57
2022/12/16 01:25:52;;;;;;;53.20;37.13;;;;;;;7.19;100.00;99561.88;5073525;28;20584;-57
2022/12/16 01:28:21;;;;;;;62.03;47.58;;;;;;;7.21;100.00;99573.03;5072742;28;20437;-58
2022/12/16 01:30:47;;;;;;;51.13;37.97;;;;;;;7.11;100.00;99573.56;5073381;28;20248;-57
2022/12/16 01:33:14;;;;;;;56.97;37.27;;;;;;;7.07;99.92;99569.16;5073218;28;20680;-57
2022/12/16 01:35:42;;;;;;;64.40;38.30;;;;;;;7.05;100.00;99556.34;5073012;28;20657;-57
2022/12/16 01:38:08;;;;;;;61.40;38.20;;;;;;;6.89;100.00;99538.84;5073183;28;20211;-57
2022/12/16 01:40:35;;;;;;;51.00;37.23;;;;;;;6.98;100.00;99551.84;5073039;28;20191;-57
2022/12/16 01:43:02;;;;;;;59.73;37.83;;;;;;;7.02;100.00;99546.03;5072997;28;20597;-57
2022/12/16 01:45:33;;;;;;;55.97;36.90;;;;;;;7.07;100.00;99546.19;5073078;28;20646;-57
2022/12/16 01:48:03;;;;;;;56.13;36.90;;;;;;;7.09;100.00;99540.28;5073590;28;20185;-57
2022/12/16 01:50:31;;;;;;;58.13;37.70;;;;;;;7.13;100.00;99544.69;5073019;28;20187;-57
2022/12/16 01:53:02;;;;;;;50.20;36.47;;;;;;;7.11;100.00;99535.25;5072778;28;20194;-57
2022/12/16 01:55:35;;;;;;;53.03;36.33;;;;;;;7.13;100.00;99533.59;5073085;28;20190;-58
2022/12/16 01:58:07;;;;;;;51.17;35.73;;;;;;;7.05;100.00;99519.72;5072831;28;20609;-58
2022/12/16 02:00:37;;;;;;;57.07;37.73;;;;;;;7.09;99.94;99511.31;5072749;28;20177;-57
2022/12/16 02:03:05;;;;;;;49.50;36.77;;;;;;;7.15;99.95;99516.63;5073355;28;20228;-58
2022/12/16 02:05:33;;;;;;;53.77;36.20;;;;;;;7.12;99.76;99502.06;5072545;28;20182;-57
2022/12/16 02:08:02;;;;;;;50.13;36.43;;;;;;;7.13;99.60;99500.38;5072614;28;20182;-58
2022/12/16 02:10:42;;;;;;;56.90;36.67;;;;;;;7.09;99.45;99509.63;5072677;28;20653;-58
2022/12/16 02:13:21;;;;;;;49.23;35.37;;;;;;;6.98;100.00;99484.59;5073123;28;20250;-57
2022/12/16 02:16:02;;;;;;;55.63;36.17;;;;;;;6.96;100.00;99504.97;5072672;28;20647;-57
2022/12/16 02:18:41;;;;;;;53.63;36.37;;;;;;;7.01;100.00;99512.78;5073306;28;20192;-57
2022/12/16 02:21:43;;;;;;;53.73;34.40;;;;;;;6.92;100.00;99504.84;5072665;28;20190;-57
2022/12/16 02:24:51;;;;;;;54.57;36.87;;;;;;;6.99;100.00;99499.97;5064180;28;20215;-57
2022/12/16 02:27:44;;;;;;;54.20;36.27;;;;;;;6.94;100.00;99487.88;5036539;28;20217;-57
2022/12/16 02:30:51;;;;;;;52.23;36.20;;;;;;;6.91;100.00;99490.34;5072903;28;20187;-56
2022/12/16 02:33:37;;;;;;;57.50;38.20;;;;;;;6.93;100.00;99496.34;5067249;28;20553;-57
2022/12/16 02:36:11;;;;;;;58.87;38.73;;;;;;;6.93;100.00;99491.25;5072407;28;20246;-57
2022/12/16 02:38:45;;;;;;;53.97;36.77;;;;;;;6.89;100.00;99497.97;5072777;28;20187;-57
2022/12/16 02:41:21;;;;;;;51.97;36.57;;;;;;;6.91;100.00;99500.56;5072513;28;20180;-57
2022/12/16 02:43:54;;;;;;;51.53;35.77;;;;;;;6.93;100.00;99512.56;5072273;28;20213;-56
2022/12/16 02:46:25;;;;;;;58.07;37.00;;;;;;;6.89;100.00;99503.06;5072232;28;20189;-57
2022/12/16 02:48:53;;;;;;;52.57;37.87;;;;;;;6.86;100.00;99514.88;5072973;28;20185;-57
2022/12/16 02:51:23;;;;;;;57.80;37.13;;;;;;;6.87;100.00;99514.03;5072706;28;20214;-57
2022/12/16 02:53:51;;;;;;;56.40;37.30;;;;;;;6.75;100.00;99485.59;5071939;28;20191;-57
2022/12/16 02:56:30;;;;;;;62.63;38.73;;;;;;;6.95;100.00;99518.56;5072199;28;20191;-57
2022/12/16 02:59:09;;;;;;;63.47;39.20;;;;;;;7.02;100.00;99510.28;5072138;28;20191;-57
2022/12/16 03:01:42;;;;;;;52.90;36.00;;;;;;;7.04;100.00;99502.66;5051736;28;20197;-58
2022/12/16 03:04:14;;;;;;;51.77;35.53;;;;;;;7.07;100.00;99495.97;5051647;28;20260;-57
2022/12/16 03:06:46;;;;;;;57.20;37.23;;;;;;;7.05;100.00;99497.59;5067074;28;20190;-57
2022/12/16 03:09:18;;;;;;;56.83;37.10;;;;;;;7.05;99.80;99489.94;5071759;28;20215;-57
2022/12/16 03:11:49;;;;;;;56.80;36.87;;;;;;;7.01;100.00;99472.78;5072201;28;20240;-57
2022/12/16 03:14:18;;;;;;;58.67;37.20;;;;;;;7.11;99.63;99502.03;5071707;28;20192;-57
2022/12/16 03:16:47;;;;;;;58.10;38.60;;;;;;;7.11;99.96;99512.25;5071711;28;20190;-57
2022/12/16 03:19:16;;;;;;;62.47;39.57;;;;;;;7.15;100.00;99503.84;5075280;28;20204;-57
2022/12/16 03:21:48;;;;;;;59.87;37.43;;;;;;;7.25;100.00;99507.56;5075564;28;20216;-58
2022/12/16 03:24:16;;;;;;;59.60;38.03;;;;;;;7.11;99.98;99479.88;5076095;28;20208;-58
2022/12/16 03:26:52;;;;;;;59.43;38.20;;;;;;;7.20;100.00;99509.09;5075367;28;20225;-58
2022/12/16 03:29:27;;;;;;;59.43;38.50;;;;;;;7.15;100.00;99503.84;5075453;28;20193;-59
2022/12/16 03:31:57;;;;;;;56.90;38.07;;;;;;;7.20;100.00;99517.63;5075888;28;20621;-56
2022/12/16 03:34:32;;;;;;;53.60;37.77;;;;;;;7.25;100.00;99521.16;5075481;28;20654;-56
2022/12/16 03:37:03;;;;;;;61.90;36.53;;;;;;;7.22;100.00;99515.13;5075422;28;20185;-57
2022/12/16 03:39:33;;;;;;;49.77;34.20;;;;;;;7.17;100.00;99522.63;5076040;28;20207;-57
2022/12/16 03:42:02;;;;;;;49.47;34.17;;;;;;;7.22;100.00;99520.22;5075359;28;20244;-57
2022/12/16 03:44:30;;;;;;;45.27;33.70;;;;;;;6.88;99.46;99488.56;5075492;28;20218;-56
2022/12/16 03:46:56;;;;;;;56.60;37.83;;;;;;;7.05;98.85;99532.50;5075877;28;20182;-57
2022/12/16 03:49:23;;;;;;;45.93;31.40;;;;;;;7.06;98.19;99539.31;5076048;28;20193;-57
2022/12/16 03:51:53;;;;;;;44.80;35.17;;;;;;;7.08;98.47;99545.38;5074094;28;20428;-58
2022/12/16 03:54:19;;;;;;;44.63;33.73;;;;;;;7.09;97.97;99542.84;5075161;28;20189;-57
2022/12/16 03:56:47;;;;;;;43.77;31.17;;;;;;;7.05;97.24;99546.16;5075419;28;20195;-57
2022/12/16 03:59:14;;;;;;;38.10;30.00;;;;;;;6.88;97.63;99526.88;5075125;28;20199;-57
2022/12/16 04:01:42;;;;;;;37.77;28.63;;;;;;;6.91;97.73;99537.19;5074869;28;20597;-58
2022/12/16 04:04:09;;;;;;;40.83;28.13;;;;;;;6.81;98.49;99517.25;5074776;28;20683;-57
2022/12/16 04:06:36;;;;;;;41.03;28.57;;;;;;;6.96;98.93;99534.75;5075356;28;20196;-57
2022/12/16 04:09:05;;;;;;;39.73;29.60;;;;;;;7.00;98.84;99534.06;5074238;28;20185;-58
2022/12/16 04:25:29;;;;;;;38.50;28.70;;;;;;;7.12;98.20;99519.94;5074835;28;20205;-57
2022/12/16 04:27:57;;;;;;;38.27;29.07;;;;;;;7.14;98.00;99530.22;5074467;28;20228;-58
2022/12/16 04:30:26;;;;;;;39.10;29.23;;;;;;;7.01;97.81;99508.53;5073520;28;20199;-57
